Terminal Aerodrome Forecast
Issued by NWS

Home | Current Version | Previous Version | Text Only | Print | Product List | Glossary Off
Versions: 1 2 3 4 5 6 7 8 9 10 11 12 13 14 15 16 17 18 19 20 21 22 23

553
FTUS43 KLOT 111135
TAFDPA
TAF
KDPA 111135Z 1112/1212 16006KT P6SM BKN060 OVC080
      TEMPO 1112/1113 6SM -SN BR BKN050
     FM111700 18008KT P6SM VCSH BKN050 BKN100
     FM112200 31007KT P6SM SCT020 OVC050
     FM120100 33018G30KT P6SM -SHSN OVC025
      TEMPO 1201/1203 5SM -SHSN OVC015=

USA.gov is the U.S. government's official web portal to all federal, state and local government web resources and services.